createdAt,value
2018-11-26T00:00:36.787Z,20.90
2018-11-26T00:03:09.351Z,22.57
2018-11-26T00:05:39.274Z,20.57
2018-11-26T00:08:10.962Z,20.20
2018-11-26T00:11:26.862Z,21.17
2018-11-26T00:13:55.895Z,20.10
2018-11-26T00:16:24.761Z,20.53
2018-11-26T00:18:53.661Z,20.70
2018-11-26T00:21:22.511Z,20.77
2018-11-26T00:23:51.769Z,20.10
2018-11-26T00:26:20.666Z,19.83
2018-11-26T00:28:49.634Z,20.00
2018-11-26T00:31:18.481Z,18.90
2018-11-26T00:33:47.358Z,19.50
2018-11-26T00:36:16.235Z,20.20
2018-11-26T00:38:45.195Z,19.93
2018-11-26T00:41:14.037Z,19.17
2018-11-26T00:43:42.948Z,18.93
2018-11-26T00:46:11.803Z,19.53
2018-11-26T00:48:40.700Z,17.73
2018-11-26T00:51:09.649Z,20.17
2018-11-26T00:53:38.557Z,20.07
2018-11-26T00:56:07.422Z,19.67
2018-11-26T00:58:36.297Z,19.57
2018-11-26T01:01:06.066Z,18.97
2018-11-26T01:03:35.162Z,19.00
2018-11-26T01:06:04.682Z,19.93
2018-11-26T01:08:33.542Z,19.37
2018-11-26T01:11:02.383Z,19.00
2018-11-26T01:13:31.276Z,18.27
2018-11-26T01:16:00.190Z,19.10
2018-11-26T01:18:29.076Z,19.80
2018-11-26T01:20:57.956Z,18.27
2018-11-26T01:23:26.941Z,19.07
2018-11-26T01:25:55.786Z,19.23
2018-11-26T01:28:24.766Z,19.23
2018-11-26T01:30:53.624Z,17.80
2018-11-26T01:33:22.514Z,18.90
2018-11-26T01:35:51.840Z,19.30
2018-11-26T01:38:20.708Z,18.57
2018-11-26T01:40:52.129Z,20.00
2018-11-26T01:43:21.514Z,19.27
2018-11-26T01:45:50.403Z,19.50
2018-11-26T01:48:19.258Z,19.67
2018-11-26T01:50:48.167Z,18.30
2018-11-26T01:53:17.163Z,20.37
2018-11-26T01:55:46.055Z,19.50
2018-11-26T01:58:15.345Z,18.83
2018-11-26T02:00:44.243Z,20.90
2018-11-26T02:03:13.103Z,20.90
2018-11-26T02:05:42.036Z,19.77
2018-11-26T02:08:10.921Z,19.77
2018-11-26T02:10:39.816Z,19.77
2018-11-26T02:13:08.681Z,19.97
2018-11-26T02:15:41.204Z,19.10
2018-11-26T02:18:10.910Z,19.97
2018-11-26T02:20:39.842Z,20.10
2018-11-26T02:23:09.131Z,18.87
2018-11-26T02:25:38.106Z,19.67
2018-11-26T02:28:07.286Z,18.63
2018-11-26T02:30:36.238Z,17.37
2018-11-26T02:33:05.360Z,18.37
2018-11-26T02:35:34.282Z,19.67
2018-11-26T02:38:03.243Z,18.57
2018-11-26T02:40:32.993Z,18.97
2018-11-26T02:43:01.970Z,18.70
2018-11-26T02:45:30.848Z,17.60
2018-11-26T02:47:59.800Z,18.67
2018-11-26T02:50:28.691Z,19.27
2018-11-26T02:52:57.657Z,16.97
2018-11-26T02:55:26.619Z,19.50
2018-11-26T02:57:55.485Z,19.03
2018-11-26T03:00:24.375Z,19.33
2018-11-26T03:02:53.270Z,17.50
2018-11-26T03:05:30.078Z,17.23
2018-11-26T03:07:59.115Z,19.47
2018-11-26T03:10:27.956Z,17.27
2018-11-26T03:12:56.875Z,18.23
2018-11-26T03:15:25.739Z,19.63
2018-11-26T03:17:54.645Z,17.57
2018-11-26T03:20:23.893Z,17.73
2018-11-26T03:22:52.805Z,19.07
2018-11-26T03:25:21.704Z,17.33
2018-11-26T03:27:50.563Z,17.67
2018-11-26T03:30:21.176Z,17.37
2018-11-26T03:32:50.226Z,18.40
2018-11-26T03:35:19.125Z,18.17
2018-11-26T03:37:48.044Z,17.23
2018-11-26T03:40:16.978Z,18.13
2018-11-26T03:42:46.292Z,18.93
2018-11-26T03:45:16.808Z,16.47
2018-11-26T03:47:45.687Z,17.70
2018-11-26T03:50:15.072Z,17.73
2018-11-26T03:52:44.946Z,19.10
2018-11-26T03:55:14.423Z,19.17
2018-11-26T03:57:43.302Z,19.30
2018-11-26T04:00:14.897Z,18.93
2018-11-26T04:02:43.740Z,17.60
2018-11-26T04:05:12.870Z,19.27
2018-11-26T04:07:41.776Z,18.10
2018-11-26T04:10:12.274Z,18.60
2018-11-26T04:12:41.194Z,19.40
2018-11-26T04:15:14.097Z,18.20
2018-11-26T04:17:42.986Z,18.20
2018-11-26T04:20:11.982Z,18.50
2018-11-26T04:22:40.934Z,17.73
2018-11-26T04:25:10.180Z,17.73
2018-11-26T04:27:39.056Z,17.97
2018-11-26T04:30:10.625Z,19.87
2018-11-26T04:32:40.306Z,18.30
2018-11-26T04:35:09.963Z,18.13
2018-11-26T04:37:38.852Z,19.77
2018-11-26T04:40:09.670Z,17.83
2018-11-26T04:42:38.874Z,18.40
2018-11-26T04:45:09.861Z,18.20
2018-11-26T04:47:39.023Z,18.03
2018-11-26T04:50:10.804Z,19.00
2018-11-26T04:52:39.873Z,17.53
2018-11-26T04:55:10.830Z,18.43
2018-11-26T04:57:42.590Z,17.70
2018-11-26T05:00:14.692Z,19.53
2018-11-26T05:02:43.625Z,16.57
2018-11-26T05:05:13.616Z,17.63
2018-11-26T05:07:42.518Z,17.80
2018-11-26T05:10:13.426Z,18.03
2018-11-26T05:12:42.397Z,18.60
2018-11-26T05:15:12.668Z,17.67
2018-11-26T05:17:41.723Z,17.53
2018-11-26T05:20:13.806Z,19.00
2018-11-26T05:22:42.765Z,17.90
2018-11-26T05:25:12.290Z,18.30
2018-11-26T05:27:41.279Z,17.27
2018-11-26T05:30:13.421Z,18.13
2018-11-26T05:32:42.570Z,17.57
2018-11-26T05:35:12.726Z,18.10
2018-11-26T05:37:41.707Z,17.20
2018-11-26T05:40:13.226Z,17.27
2018-11-26T05:42:42.699Z,17.53
2018-11-26T05:45:15.380Z,16.50
2018-11-26T05:47:44.330Z,18.77
2018-11-26T05:50:14.960Z,17.83
2018-11-26T05:52:45.910Z,17.37
2018-11-26T05:55:16.626Z,17.93
2018-11-26T05:57:46.397Z,17.77
2018-11-26T06:00:33.733Z,18.57
2018-11-26T06:03:02.875Z,18.13
2018-11-26T06:05:31.737Z,17.83
2018-11-26T06:08:00.547Z,19.33
2018-11-26T06:10:29.483Z,18.63
2018-11-26T06:12:58.308Z,18.13
2018-11-26T06:15:27.322Z,20.50
2018-11-26T06:17:56.137Z,18.63
2018-11-26T06:20:25.078Z,17.97
2018-11-26T06:22:53.950Z,18.63
2018-11-26T06:25:23.219Z,16.97
2018-11-26T06:27:52.077Z,19.57
2018-11-26T06:30:20.990Z,20.53
2018-11-26T06:32:49.842Z,19.57
2018-11-26T06:35:20.695Z,17.53
2018-11-26T06:37:49.593Z,19.20
2018-11-26T06:40:18.606Z,18.13
2018-11-26T06:42:47.447Z,17.57
2018-11-26T06:45:19.191Z,21.53
2018-11-26T06:47:48.118Z,19.80
2018-11-26T06:50:18.660Z,19.47
2018-11-26T06:52:47.699Z,42.63
2018-11-26T06:55:19.203Z,23.93
2018-11-26T06:57:48.173Z,38.77
2018-11-26T07:00:18.638Z,25.37
2018-11-26T07:02:47.637Z,44.30
2018-11-26T07:05:20.046Z,37.87
2018-11-26T07:07:49.019Z,21.20
2018-11-26T07:10:19.081Z,25.37
2018-11-26T07:12:47.989Z,25.33
2018-11-26T07:15:18.804Z,25.13
2018-11-26T07:17:47.756Z,21.80
2018-11-26T07:20:18.146Z,19.40
2018-11-26T07:22:47.180Z,25.23
2018-11-26T07:25:17.909Z,37.60
2018-11-26T07:27:50.774Z,19.50
2018-11-26T07:30:21.680Z,31.10
2018-11-26T07:32:50.728Z,19.47
2018-11-26T07:35:19.655Z,28.57
2018-11-26T07:37:49.928Z,22.47
2018-11-26T07:40:20.618Z,23.67
2018-11-26T07:42:59.447Z,24.30
2018-11-26T07:45:28.314Z,27.03
2018-11-26T07:47:57.308Z,42.00
2018-11-26T07:50:26.222Z,21.77
2018-11-26T07:52:55.184Z,21.13
2018-11-26T07:55:24.084Z,23.70
2018-11-26T07:57:53.009Z,47.93
2018-11-26T08:00:22.220Z,24.13
2018-11-26T08:02:51.364Z,38.17
2018-11-26T08:05:21.688Z,18.87
2018-11-26T08:07:50.658Z,24.13
2018-11-26T08:10:21.140Z,32.07
2018-11-26T08:12:51.808Z,35.80
2018-11-26T08:15:23.233Z,27.67
2018-11-26T08:17:52.169Z,19.93
2018-11-26T08:20:21.880Z,29.13
2018-11-26T08:22:50.809Z,26.27
2018-11-26T08:25:21.680Z,32.17
2018-11-26T08:27:51.027Z,20.60
2018-11-26T08:30:24.797Z,19.27
2018-11-26T08:32:56.937Z,21.57
2018-11-26T08:35:26.001Z,20.47
2018-11-26T08:38:00.282Z,20.97
2018-11-26T08:40:48.105Z,20.90
2018-11-26T08:43:24.434Z,21.27
2018-11-26T08:45:58.026Z,20.00
2018-11-26T08:48:27.548Z,20.23
2018-11-26T08:51:01.022Z,18.67
2018-11-26T08:53:30.346Z,18.77
2018-11-26T08:55:59.413Z,18.43
2018-11-26T08:58:28.278Z,19.50
2018-11-26T09:01:03.404Z,17.17
2018-11-26T09:03:36.022Z,17.70
2018-11-26T09:06:05.489Z,17.27
2018-11-26T09:08:36.126Z,18.47
2018-11-26T09:11:07.084Z,17.00
2018-11-26T09:13:36.077Z,19.07
2018-11-26T09:16:05.189Z,18.47
2018-11-26T09:18:34.137Z,17.83
2018-11-26T09:21:02.997Z,18.47
2018-11-26T09:23:31.919Z,18.17
2018-11-26T09:26:00.778Z,16.87
2018-11-26T09:28:29.672Z,17.57
2018-11-26T09:30:58.640Z,16.70
2018-11-26T09:33:27.550Z,17.07
2018-11-26T09:35:56.416Z,16.07
2018-11-26T09:38:25.641Z,15.30
2018-11-26T09:40:54.634Z,16.10
2018-11-26T09:43:23.577Z,15.43
2018-11-26T09:45:52.433Z,14.33
2018-11-26T09:48:21.342Z,13.00
2018-11-26T09:50:50.210Z,13.53
2018-11-26T09:53:19.166Z,12.53
2018-11-26T09:55:48.114Z,13.63
2018-11-26T09:58:17.017Z,13.60
2018-11-26T10:00:45.882Z,12.53
2018-11-26T10:03:14.869Z,13.23
2018-11-26T10:05:44.046Z,12.03
2018-11-26T10:08:12.962Z,13.27
2018-11-26T10:10:41.838Z,11.40
2018-11-26T10:13:10.732Z,10.50
2018-11-26T10:15:39.652Z,11.07
2018-11-26T10:18:08.513Z,10.77
2018-11-26T10:20:37.501Z,11.20
2018-11-26T10:23:06.784Z,9.63
2018-11-26T10:25:35.730Z,10.47
2018-11-26T10:28:04.699Z,10.57
2018-11-26T10:30:33.608Z,9.63
2018-11-26T10:33:02.564Z,9.37
2018-11-26T10:35:31.542Z,8.47
2018-11-26T10:38:00.440Z,8.60
2018-11-26T10:40:29.883Z,8.43
2018-11-26T10:42:58.730Z,8.30
2018-11-26T10:45:27.641Z,7.80
2018-11-26T10:47:56.521Z,7.30
2018-11-26T10:50:26.428Z,8.07
2018-11-26T10:52:58.053Z,6.47
2018-11-26T10:55:31.081Z,7.30
2018-11-26T10:57:59.998Z,7.03
2018-11-26T11:00:34.392Z,7.47
2018-11-26T11:03:03.331Z,7.53
2018-11-26T11:05:32.365Z,7.17
2018-11-26T11:08:01.465Z,7.53
2018-11-26T11:10:32.530Z,7.33
2018-11-26T11:13:01.414Z,7.13
2018-11-26T11:15:30.313Z,6.73
2018-11-26T11:17:59.205Z,7.07
2018-11-26T11:20:28.933Z,6.03
2018-11-26T11:22:57.943Z,6.83
2018-11-26T11:25:26.872Z,6.50
2018-11-26T11:27:56.500Z,5.63
2018-11-26T11:30:26.924Z,6.47
2018-11-26T11:32:55.905Z,7.47
2018-11-26T11:35:25.850Z,7.60
2018-11-26T11:37:55.246Z,5.97
2018-11-26T11:40:27.974Z,6.17
2018-11-26T11:42:58.047Z,6.83
2018-11-26T11:45:27.889Z,5.70
2018-11-26T11:47:56.942Z,5.70
2018-11-26T11:50:25.873Z,5.17
2018-11-26T11:52:54.813Z,4.77
2018-11-26T11:55:25.398Z,4.80
2018-11-26T11:57:54.362Z,4.43
2018-11-26T12:00:30.238Z,4.70
2018-11-26T12:02:59.999Z,4.87
2018-11-26T12:05:28.919Z,5.23
2018-11-26T12:07:57.834Z,4.13
2018-11-26T12:10:26.683Z,5.17
2018-11-26T12:12:55.772Z,5.27
2018-11-26T12:15:24.701Z,4.90
2018-11-26T12:17:53.599Z,4.93
2018-11-26T12:20:22.561Z,5.30
2018-11-26T12:22:51.433Z,4.50
2018-11-26T12:25:21.321Z,5.67
2018-11-26T12:27:50.244Z,4.50
2018-11-26T12:30:21.822Z,4.20
2018-11-26T12:32:51.104Z,4.07
2018-11-26T12:35:20.043Z,4.90
2018-11-26T12:37:48.971Z,4.10
2018-11-26T12:40:25.241Z,3.87
2018-11-26T12:42:56.068Z,3.87
2018-11-26T12:45:31.807Z,4.77
2018-11-26T12:48:00.825Z,4.53
2018-11-26T12:50:29.796Z,26.17
2018-11-26T12:52:58.749Z,18.87
2018-11-26T12:55:27.655Z,13.47
2018-11-26T12:57:57.241Z,21.67
2018-11-26T13:00:28.508Z,5.00
2018-11-26T13:03:02.439Z,4.77
2018-11-26T13:05:31.428Z,4.33
2018-11-26T13:08:00.454Z,5.23
2018-11-26T13:10:30.195Z,4.83
2018-11-26T13:12:59.068Z,4.30
2018-11-26T13:15:28.894Z,3.97
2018-11-26T13:17:57.853Z,3.57
2018-11-26T13:20:28.378Z,4.00
2018-11-26T13:22:57.376Z,4.60
2018-11-26T13:25:29.797Z,4.63
2018-11-26T13:28:01.513Z,3.80
2018-11-26T13:30:33.435Z,3.97
2018-11-26T13:33:04.842Z,3.93
2018-11-26T13:35:33.734Z,3.80
2018-11-26T13:38:02.787Z,3.60
2018-11-26T13:40:31.699Z,3.67
2018-11-26T13:43:00.719Z,3.20
2018-11-26T13:45:34.869Z,3.70
2018-11-26T13:48:05.852Z,3.40
2018-11-26T13:50:37.035Z,3.63
2018-11-26T13:53:06.327Z,4.23
2018-11-26T13:55:35.296Z,4.40
2018-11-26T13:58:04.610Z,3.77
2018-11-26T14:00:33.516Z,4.67
2018-11-26T14:03:02.428Z,3.80
2018-11-26T14:05:31.435Z,4.20
2018-11-26T14:08:00.296Z,3.70
2018-11-26T14:10:29.397Z,4.03
2018-11-26T14:13:01.878Z,4.33
2018-11-26T14:15:30.897Z,3.57
2018-11-26T14:17:59.819Z,3.57
2018-11-26T14:20:28.832Z,3.60
2018-11-26T14:22:57.742Z,3.97
2018-11-26T14:25:26.669Z,4.07
2018-11-26T14:27:55.592Z,4.53
2018-11-26T14:30:26.413Z,3.87
2018-11-26T14:32:55.684Z,4.33
2018-11-26T14:35:24.748Z,3.67
2018-11-26T14:37:55.688Z,3.63
2018-11-26T14:40:31.413Z,4.10
2018-11-26T14:43:00.692Z,3.97
2018-11-26T14:45:30.881Z,3.60
2018-11-26T14:47:59.769Z,3.07
2018-11-26T14:50:28.620Z,3.87
2018-11-26T14:52:58.440Z,3.87
2018-11-26T14:55:30.085Z,4.40
2018-11-26T14:57:59.452Z,3.83
2018-11-26T15:00:28.385Z,3.70
2018-11-26T15:02:57.322Z,4.07
2018-11-26T15:05:26.520Z,4.00
2018-11-26T15:07:55.492Z,4.23
2018-11-26T15:10:25.158Z,3.90
2018-11-26T15:12:54.143Z,3.77
2018-11-26T15:15:24.994Z,4.10
2018-11-26T15:17:54.064Z,4.23
2018-11-26T15:20:30.357Z,4.50
2018-11-26T15:23:00.330Z,4.40
2018-11-26T15:25:31.699Z,4.30
2018-11-26T15:28:12.433Z,3.83
2018-11-26T15:30:42.015Z,3.60
2018-11-26T15:33:11.073Z,4.10
2018-11-26T15:35:39.942Z,4.20
2018-11-26T15:38:09.022Z,4.53
2018-11-26T15:40:37.973Z,4.30
2018-11-26T15:43:08.265Z,4.87
2018-11-26T15:45:37.590Z,4.93
2018-11-26T15:48:10.446Z,4.20
2018-11-26T15:50:39.406Z,3.73
2018-11-26T15:53:09.433Z,3.70
2018-11-26T15:55:38.486Z,3.20
2018-11-26T15:58:08.812Z,3.43
2018-11-26T16:00:37.694Z,3.63
2018-11-26T16:03:07.222Z,3.23
2018-11-26T16:05:36.314Z,3.50
2018-11-26T16:08:10.604Z,2.77
2018-11-26T16:10:39.497Z,3.40
2018-11-26T16:13:10.157Z,6.37
2018-11-26T16:15:41.311Z,4.73
2018-11-26T16:18:16.592Z,4.37
2018-11-26T16:20:45.461Z,6.93
2018-11-26T16:23:14.429Z,7.07
2018-11-26T16:25:45.216Z,6.57
2018-11-26T16:28:19.805Z,6.63
2018-11-26T16:30:48.719Z,4.90
2018-11-26T16:33:17.715Z,4.17
2018-11-26T16:35:46.599Z,5.43
2018-11-26T16:38:15.603Z,5.13
2018-11-26T16:40:44.502Z,5.10
2018-11-26T16:43:13.698Z,5.10
2018-11-26T16:45:42.564Z,3.87
2018-11-26T16:48:11.459Z,4.00
2018-11-26T16:50:40.428Z,8.13
2018-11-26T16:53:09.268Z,6.20
2018-11-26T16:55:38.180Z,5.57
2018-11-26T16:58:07.227Z,3.97
2018-11-26T17:00:36.133Z,3.50
2018-11-26T17:03:05.383Z,4.13
2018-11-26T17:05:36.146Z,4.57
2018-11-26T17:08:06.537Z,3.97
2018-11-26T17:10:35.497Z,4.47
2018-11-26T17:13:04.842Z,3.53
2018-11-26T17:15:33.792Z,3.27
2018-11-26T17:18:02.837Z,3.73
2018-11-26T17:20:31.743Z,4.10
2018-11-26T17:23:00.606Z,4.33
2018-11-26T17:25:29.467Z,4.23
2018-11-26T17:27:58.451Z,3.40
2018-11-26T17:30:28.034Z,4.67
2018-11-26T17:33:01.595Z,4.33
2018-11-26T17:35:31.529Z,3.80
2018-11-26T17:38:00.595Z,3.90
2018-11-26T17:40:29.422Z,4.00
2018-11-26T17:42:58.813Z,4.07
2018-11-26T17:45:27.830Z,4.27
2018-11-26T17:47:58.535Z,3.83
2018-11-26T17:50:32.230Z,3.83
2018-11-26T17:53:01.251Z,3.73
2018-11-26T17:55:30.258Z,3.90
2018-11-26T17:57:59.168Z,3.80
2018-11-26T18:00:31.498Z,3.70
2018-11-26T18:03:00.632Z,3.77
2018-11-26T18:05:31.338Z,3.70
2018-11-26T18:08:10.087Z,3.90
2018-11-26T18:10:39.164Z,4.03
2018-11-26T18:13:08.245Z,3.87
2018-11-26T18:15:37.353Z,3.60
2018-11-26T18:18:16.154Z,3.50
2018-11-26T18:20:45.515Z,3.30
2018-11-26T18:23:14.719Z,3.27
2018-11-26T18:25:44.130Z,3.23
2018-11-26T18:28:16.105Z,4.13
2018-11-26T18:30:47.032Z,3.20
2018-11-26T18:33:16.024Z,3.17
2018-11-26T18:35:46.052Z,3.43
2018-11-26T18:38:14.927Z,4.00
2018-11-26T18:40:45.978Z,3.63
2018-11-26T18:43:14.861Z,3.60
2018-11-26T18:45:43.903Z,3.40
2018-11-26T18:48:14.579Z,4.10
2018-11-26T18:50:43.475Z,4.23
2018-11-26T18:53:12.427Z,3.40
2018-11-26T18:55:42.458Z,3.80
2018-11-26T18:58:11.485Z,3.97
2018-11-26T19:00:46.634Z,3.80
2018-11-26T19:03:19.621Z,4.07
2018-11-26T19:05:50.661Z,3.80
2018-11-26T19:08:19.719Z,3.70
2018-11-26T19:10:52.217Z,3.73
2018-11-26T19:13:24.255Z,3.40
2018-11-26T19:15:58.527Z,3.53
2018-11-26T19:18:27.709Z,4.03
2018-11-26T19:20:56.613Z,3.97
2018-11-26T19:23:25.510Z,3.50
2018-11-26T19:25:54.707Z,3.73
2018-11-26T19:28:23.909Z,3.90
2018-11-26T19:30:53.571Z,3.90
2018-11-26T19:33:22.411Z,3.53
2018-11-26T19:35:51.810Z,3.23
2018-11-26T19:38:20.817Z,3.83
2018-11-26T19:40:51.178Z,3.90
2018-11-26T19:43:20.294Z,4.70
2018-11-26T19:45:49.234Z,3.63
2018-11-26T19:48:18.126Z,3.63
2018-11-26T19:50:47.017Z,4.60
2018-11-26T19:53:15.972Z,5.43
2018-11-26T19:55:45.067Z,4.30
2018-11-26T19:58:15.453Z,4.57
2018-11-26T20:00:44.527Z,3.50
2018-11-26T20:03:32.746Z,4.90
2018-11-26T20:06:12.610Z,4.03
2018-11-26T20:08:42.251Z,3.90
2018-11-26T20:11:11.797Z,4.07
2018-11-26T20:13:40.789Z,4.03
2018-11-26T20:16:13.411Z,4.90
2018-11-26T20:18:42.674Z,5.33
2018-11-26T20:21:11.528Z,9.93
2018-11-26T20:23:40.503Z,4.20
2018-11-26T20:26:09.458Z,4.23
2018-11-26T20:28:38.466Z,4.30
2018-11-26T20:31:08.721Z,4.43
2018-11-26T20:33:37.728Z,4.63
2018-11-26T20:36:09.745Z,5.97
2018-11-26T20:38:38.794Z,4.60
2018-11-26T20:41:09.472Z,6.10
2018-11-26T20:43:38.497Z,4.30
2018-11-26T20:46:07.510Z,4.30
2018-11-26T20:48:36.391Z,4.97
2018-11-26T20:51:06.534Z,8.00
2018-11-26T20:53:35.545Z,5.60
2018-11-26T20:56:12.960Z,4.63
2018-11-26T20:58:43.365Z,4.07
2018-11-26T21:01:12.299Z,4.77
2018-11-26T21:03:41.279Z,5.10
2018-11-26T21:06:11.746Z,4.30
2018-11-26T21:08:39.680Z,5.00
2018-11-26T21:11:08.693Z,4.53
2018-11-26T21:13:37.631Z,5.10
2018-11-26T21:16:06.985Z,5.20
2018-11-26T21:18:35.931Z,4.50
2018-11-26T21:21:08.139Z,4.17
2018-11-26T21:23:37.141Z,4.47
2018-11-26T21:26:08.220Z,4.63
2018-11-26T21:28:37.253Z,4.17
2018-11-26T21:31:06.778Z,4.70
2018-11-26T21:33:35.965Z,4.60
2018-11-26T21:36:05.408Z,3.80
2018-11-26T21:38:37.424Z,4.77
2018-11-26T21:41:07.942Z,4.03
2018-11-26T21:43:36.915Z,4.70
2018-11-26T21:46:07.203Z,4.23
2018-11-26T21:48:36.218Z,3.87
2018-11-26T21:51:05.980Z,4.73
2018-11-26T21:53:34.973Z,4.10
2018-11-26T21:56:03.869Z,3.97
2018-11-26T21:58:33.176Z,4.60
2018-11-26T22:01:04.533Z,4.17
2018-11-26T22:03:33.463Z,4.33
2018-11-26T22:06:03.208Z,4.00
2018-11-26T22:08:32.229Z,4.23
2018-11-26T22:11:01.237Z,4.10
2018-11-26T22:13:30.720Z,4.10
2018-11-26T22:16:00.239Z,4.20
2018-11-26T22:18:29.313Z,4.00
2018-11-26T22:20:58.224Z,4.17
2018-11-26T22:23:27.116Z,4.17
2018-11-26T22:25:56.122Z,4.23
2018-11-26T22:28:24.998Z,4.00
2018-11-26T22:30:53.956Z,4.57
2018-11-26T22:33:22.911Z,4.23
2018-11-26T22:35:51.770Z,3.97
2018-11-26T22:38:20.669Z,4.73
2018-11-26T22:40:49.606Z,4.60
2018-11-26T22:43:18.830Z,4.40
2018-11-26T22:45:47.672Z,4.07
2018-11-26T22:48:16.581Z,3.93
2018-11-26T22:50:45.860Z,4.13
2018-11-26T22:53:14.716Z,3.70
2018-11-26T22:55:44.300Z,4.37
2018-11-26T22:58:14.296Z,4.37
2018-11-26T23:00:49.666Z,3.40
2018-11-26T23:03:23.594Z,4.17
2018-11-26T23:05:52.970Z,3.97
2018-11-26T23:08:21.877Z,3.67
2018-11-26T23:10:50.841Z,3.90
2018-11-26T23:13:19.727Z,4.00
2018-11-26T23:15:48.690Z,3.97
2018-11-26T23:18:17.604Z,3.97
2018-11-26T23:20:46.478Z,4.33
2018-11-26T23:23:15.399Z,4.30
2018-11-26T23:25:44.293Z,3.70
2018-11-26T23:28:13.188Z,3.80
2018-11-26T23:30:42.061Z,4.00
2018-11-26T23:33:10.956Z,3.87
2018-11-26T23:35:39.902Z,4.43
2018-11-26T23:38:08.788Z,3.83
2018-11-26T23:40:37.677Z,4.03
2018-11-26T23:43:07.213Z,4.90
2018-11-26T23:45:36.059Z,3.97
2018-11-26T23:48:05.777Z,4.30
2018-11-26T23:50:35.919Z,4.30
2018-11-26T23:53:06.047Z,4.40
2018-11-26T23:55:35.006Z,4.33
2018-11-26T23:58:04.011Z,4.40
